Time;durP1;ratioP1;P1;durP2;ratioP2;P2;SDS_P1;SDS_P2;PMS_P1;PMS_P2;Temp;Humidity;BMP_temperature;BMP_pressure;BME280_temperature;BME280_humidity;BME280_pressure;Samples;Min_cycle;Max_cycle;Signal;HPM_P1;HPM_P2
2022/05/10 00:00:38;;;;;;;5.63;5.00;;;16.50;99.90;;;;;;4995133;28;20189;-64
2022/05/10 00:03:07;;;;;;;6.80;5.80;;;16.50;99.90;;;;;;4995161;28;20616;-63
2022/05/10 00:05:38;;;;;;;7.10;6.07;;;16.50;99.90;;;;;;4994876;28;20185;-62
2022/05/10 00:08:07;;;;;;;6.17;5.57;;;16.50;99.90;;;;;;4994943;28;20534;-63
2022/05/10 00:10:35;;;;;;;5.50;5.00;;;16.40;99.90;;;;;;4995000;28;20348;-63
2022/05/10 00:13:00;;;;;;;6.17;5.57;;;16.40;99.90;;;;;;4995002;28;20173;-64
2022/05/10 00:15:26;;;;;;;6.03;5.30;;;16.40;99.90;;;;;;4994624;28;20192;-63
2022/05/10 00:17:52;;;;;;;5.73;5.13;;;16.30;99.90;;;;;;4994822;28;20169;-63
2022/05/10 00:20:23;;;;;;;5.93;5.30;;;16.30;99.90;;;;;;4994794;28;20197;-63
2022/05/10 00:22:49;;;;;;;5.83;5.33;;;16.20;99.90;;;;;;4994728;28;20203;-64
2022/05/10 00:25:19;;;;;;;5.60;5.10;;;16.20;99.90;;;;;;4994541;28;20178;-62
2022/05/10 00:27:44;;;;;;;6.47;5.37;;;16.20;99.90;;;;;;4994526;28;20170;-63
2022/05/10 00:30:11;;;;;;;5.87;5.33;;;16.10;99.90;;;;;;4994628;28;20185;-64
2022/05/10 00:32:38;;;;;;;6.00;5.40;;;16.10;99.90;;;;;;4994636;28;20590;-63
2022/05/10 00:35:10;;;;;;;6.07;5.40;;;16.10;99.90;;;;;;4994188;28;20182;-62
2022/05/10 00:37:35;;;;;;;6.87;5.77;;;16.00;99.90;;;;;;4994137;28;20268;-62
2022/05/10 00:40:01;;;;;;;5.43;4.93;;;15.90;99.90;;;;;;4994406;28;20762;-63
2022/05/10 00:42:45;;;;;;;6.17;5.50;;;15.90;99.90;;;;;;4994295;28;20693;-65
2022/05/10 00:45:15;;;;;;;5.33;4.90;;;15.80;99.90;;;;;;4994398;28;20169;-62
2022/05/10 00:48:10;;;;;;;6.60;5.40;;;15.70;99.90;;;;;;4994511;28;20170;-61
2022/05/10 00:50:45;;;;;;;5.80;5.30;;;15.70;99.90;;;;;;4986707;28;20221;-63
2022/05/10 00:53:22;;;;;;;5.87;5.20;;;15.60;99.90;;;;;;4991738;28;20191;-60
2022/05/10 00:56:04;;;;;;;6.27;5.37;;;15.60;99.90;;;;;;4993507;28;20230;-63
2022/05/10 00:58:45;;;;;;;5.77;5.27;;;15.60;99.90;;;;;;4993516;28;20232;-60
2022/05/10 01:01:16;;;;;;;6.40;5.10;;;15.50;99.90;;;;;;4993501;28;20207;-60
2022/05/10 01:03:56;;;;;;;6.23;5.03;;;15.50;99.90;;;;;;4993580;28;20282;-61
2022/05/10 01:06:36;;;;;;;6.87;5.13;;;15.50;99.90;;;;;;4993933;28;20200;-59
2022/05/10 01:09:04;;;;;;;5.90;5.40;;;15.50;99.90;;;;;;4993402;28;20263;-60
2022/05/10 01:11:45;;;;;;;5.53;5.03;;;15.50;99.90;;;;;;4993493;28;20191;-60
2022/05/10 01:14:22;;;;;;;5.80;5.20;;;15.50;99.90;;;;;;4992211;28;20643;-62
2022/05/10 01:16:48;;;;;;;6.63;5.07;;;15.50;99.90;;;;;;4991895;28;20183;-61
2022/05/10 01:19:15;;;;;;;6.23;5.30;;;15.50;99.90;;;;;;4991712;28;20173;-60
2022/05/10 01:22:15;;;;;;;10.13;5.20;;;15.40;99.90;;;;;;4992181;28;20204;-61
2022/05/10 01:25:11;;;;;;;5.87;5.27;;;15.40;99.90;;;;;;4991752;28;20181;-62
2022/05/10 01:28:03;;;;;;;5.70;5.20;;;15.30;99.90;;;;;;4984885;28;20653;-63
2022/05/10 01:30:31;;;;;;;5.67;5.17;;;15.20;99.90;;;;;;4992667;28;20207;-63
2022/05/10 01:36:14;;;;;;;7.00;5.60;;;15.20;99.90;;;;;;4993367;28;20184;-62
2022/05/10 01:38:47;;;;;;;6.67;5.63;;;15.20;99.90;;;;;;4993222;28;20182;-64
2022/05/10 01:41:35;;;;;;;7.33;6.53;;;15.40;99.90;;;;;;4993253;28;20181;-63
2022/05/10 01:44:40;;;;;;;8.20;6.67;;;15.10;99.90;;;;;;4993101;28;20199;-60
2022/05/10 01:47:27;;;;;;;6.80;6.20;;;15.10;99.90;;;;;;4973778;28;20287;-62
2022/05/10 01:50:12;;;;;;;6.97;5.50;;;15.00;99.90;;;;;;4973540;28;20289;-63
2022/05/10 01:53:11;;;;;;;6.10;5.50;;;14.90;99.90;;;;;;4990280;28;20642;-63
2022/05/10 01:55:38;;;;;;;6.43;5.40;;;15.00;99.90;;;;;;4992395;28;20283;-63
2022/05/10 01:58:10;;;;;;;5.50;4.90;;;14.80;99.90;;;;;;4992776;28;20209;-63
2022/05/10 02:00:38;;;;;;;5.97;5.30;;;14.90;99.90;;;;;;4992656;28;20201;-63
2022/05/10 02:03:12;;;;;;;5.80;5.30;;;14.90;99.90;;;;;;4992760;28;20580;-63
2022/05/10 02:05:53;;;;;;;6.03;5.43;;;14.90;99.90;;;;;;4992620;28;20559;-61
2022/05/10 02:08:47;;;;;;;5.23;4.73;;;14.80;99.90;;;;;;4992563;28;20180;-63
2022/05/10 02:11:15;;;;;;;6.20;5.60;;;14.80;99.90;;;;;;4992079;28;20256;-62
2022/05/10 02:13:47;;;;;;;6.00;5.40;;;14.80;99.90;;;;;;4992457;28;20260;-63
2022/05/10 02:16:20;;;;;;;5.77;5.27;;;14.80;99.90;;;;;;4992692;28;20520;-64
2022/05/10 02:18:52;;;;;;;5.30;4.83;;;14.80;99.90;;;;;;4992885;28;20225;-60
2022/05/10 02:21:23;;;;;;;6.00;5.40;;;14.80;99.90;;;;;;4992671;28;20586;-63
2022/05/10 02:24:00;;;;;;;7.07;5.40;;;14.70;99.90;;;;;;4992371;28;20613;-64
2022/05/10 02:26:35;;;;;;;6.37;5.47;;;14.70;99.90;;;;;;4992232;28;20656;-61
2022/05/10 02:29:19;;;;;;;6.37;5.50;;;14.60;99.90;;;;;;4992617;28;20185;-63
2022/05/10 02:34:39;;;;;;;5.43;4.93;;;14.50;99.90;;;;;;4992567;28;20224;-63
2022/05/10 02:37:04;;;;;;;6.33;5.10;;;14.30;99.90;;;;;;4974915;28;20213;-63
2022/05/10 02:39:30;;;;;;;6.67;5.20;;;14.40;99.90;;;;;;4992484;28;20201;-63
2022/05/10 02:41:57;;;;;;;7.37;5.50;;;14.40;99.90;;;;;;4992448;28;20173;-64
2022/05/10 02:44:23;;;;;;;6.13;5.53;;;14.30;99.90;;;;;;4992175;28;20236;-62
2022/05/10 02:46:49;;;;;;;5.40;4.90;;;14.40;99.90;;;;;;4992339;28;20640;-63
2022/05/10 02:49:14;;;;;;;6.60;5.00;;;14.30;99.90;;;;;;4992350;28;20173;-64
2022/05/10 02:51:40;;;;;;;5.60;5.03;;;14.30;99.90;;;;;;4992336;28;20584;-62
2022/05/10 02:54:05;;;;;;;5.53;4.90;;;14.30;99.90;;;;;;4992077;28;20634;-63
2022/05/10 02:56:31;;;;;;;5.00;4.60;;;14.30;99.90;;;;;;4992364;28;20169;-63
2022/05/10 02:59:10;;;;;;;10.83;4.93;;;14.30;99.90;;;;;;4974744;28;20196;-64
2022/05/10 03:01:59;;;;;;;5.60;5.13;;;14.30;99.90;;;;;;4985185;28;20178;-63
2022/05/10 03:04:39;;;;;;;5.77;5.10;;;14.20;99.90;;;;;;4991965;28;20259;-64
2022/05/10 03:07:07;;;;;;;5.80;5.30;;;14.20;99.90;;;;;;4992336;28;20171;-62
2022/05/10 03:09:33;;;;;;;5.60;5.10;;;14.10;99.90;;;;;;4992237;28;20554;-63
2022/05/10 03:12:02;;;;;;;5.90;5.30;;;14.10;99.90;;;;;;4992312;28;20166;-63
2022/05/10 03:14:27;;;;;;;5.50;5.00;;;14.10;99.90;;;;;;4991838;28;20251;-63
2022/05/10 03:16:53;;;;;;;7.53;5.30;;;14.80;99.90;;;;;;4992176;28;20663;-64
2022/05/10 03:19:19;;;;;;;6.03;5.23;;;14.00;99.90;;;;;;4992359;28;20239;-64
2022/05/10 03:21:45;;;;;;;6.80;5.10;;;14.00;99.90;;;;;;4994530;28;20170;-64
2022/05/10 03:24:10;;;;;;;6.40;5.63;;;14.00;99.90;;;;;;4995844;28;20217;-63
2022/05/10 03:26:37;;;;;;;5.10;4.70;;;14.00;99.90;;;;;;4995977;28;20236;-61
2022/05/10 03:29:03;;;;;;;6.47;5.20;;;14.00;99.90;;;;;;4995830;28;20199;-64
2022/05/10 03:31:29;;;;;;;5.40;4.90;;;14.00;99.90;;;;;;4995706;28;20193;-64
2022/05/10 03:36:39;;;;;;;5.80;5.23;;;14.20;99.90;;;;;;4995852;28;20261;-63
2022/05/10 03:39:06;;;;;;;6.27;5.07;;;13.90;99.90;;;;;;4995695;28;20229;-61
2022/05/10 03:41:31;;;;;;;5.73;5.17;;;14.00;99.90;;;;;;4995637;28;20249;-64
2022/05/10 03:43:57;;;;;;;5.97;5.37;;;13.90;99.90;;;;;;4995224;28;20287;-63
2022/05/10 03:46:23;;;;;;;6.27;5.23;;;13.90;99.90;;;;;;4995543;28;20181;-63
2022/05/10 03:48:50;;;;;;;5.60;5.10;;;13.90;99.90;;;;;;4995413;28;20173;-64
2022/05/10 03:51:16;;;;;;;5.13;4.63;;;14.00;99.90;;;;;;4995350;28;20205;-62
2022/05/10 03:53:42;;;;;;;5.23;4.80;;;14.00;99.90;;;;;;4995209;28;20273;-63
2022/05/10 03:56:07;;;;;;;5.80;5.30;;;14.00;99.90;;;;;;4995190;28;20165;-62
2022/05/10 03:58:33;;;;;;;7.93;5.10;;;14.30;99.90;;;;;;4995403;28;20172;-64
2022/05/10 04:00:58;;;;;;;5.37;4.87;;;14.00;99.90;;;;;;4995213;28;20560;-61
2022/05/10 04:03:24;;;;;;;5.73;5.10;;;14.00;99.90;;;;;;4994849;28;20205;-62
2022/05/10 04:05:49;;;;;;;5.83;5.30;;;13.90;99.90;;;;;;4995090;28;20169;-64
2022/05/10 04:08:15;;;;;;;5.33;4.93;;;13.90;99.90;;;;;;4994670;28;20189;-62
2022/05/10 04:10:40;;;;;;;5.87;5.17;;;13.90;99.90;;;;;;4978652;28;20609;-63
2022/05/10 04:13:07;;;;;;;5.77;5.00;;;13.90;99.90;;;;;;4995054;28;20520;-62
2022/05/10 04:15:32;;;;;;;5.60;5.10;;;13.90;99.90;;;;;;4994567;28;20543;-63
2022/05/10 04:17:58;;;;;;;6.10;5.40;;;14.00;99.90;;;;;;4994942;28;20181;-62
2022/05/10 04:20:23;;;;;;;5.33;4.90;;;14.00;99.90;;;;;;4994805;28;20203;-63
2022/05/10 04:22:49;;;;;;;6.07;5.47;;;14.00;99.90;;;;;;4994835;28;20193;-63
2022/05/10 04:25:18;;;;;;;5.97;5.47;;;14.00;99.90;;;;;;4994387;28;20181;-63
2022/05/10 04:27:43;;;;;;;6.20;5.60;;;14.00;99.90;;;;;;4994737;28;20175;-63
2022/05/10 04:30:10;;;;;;;5.93;5.20;;;14.00;99.90;;;;;;4994530;28;20705;-64
2022/05/10 04:32:38;;;;;;;6.10;5.47;;;14.00;99.90;;;;;;4993912;28;20177;-63
2022/05/10 04:35:04;;;;;;;5.47;4.90;;;14.00;99.90;;;;;;4994383;28;20162;-64
2022/05/10 04:37:29;;;;;;;5.97;5.37;;;14.00;99.90;;;;;;4994403;28;20165;-63
2022/05/10 04:42:43;;;;;;;6.43;5.30;;;14.00;99.90;;;;;;4994798;28;20791;-64
2022/05/10 04:45:09;;;;;;;10.43;5.30;;;14.00;99.90;;;;;;4994027;28;20663;-64
2022/05/10 04:47:34;;;;;;;5.83;5.00;;;14.10;99.90;;;;;;4994312;28;20194;-63
2022/05/10 04:50:01;;;;;;;5.87;5.33;;;14.20;99.90;;;;;;4994184;28;20716;-62
2022/05/10 04:52:27;;;;;;;6.57;4.73;;;14.30;99.90;;;;;;4995446;28;20192;-63
2022/05/10 04:54:52;;;;;;;5.00;4.60;;;14.40;99.90;;;;;;4993919;28;20176;-65
2022/05/10 04:57:18;;;;;;;5.40;4.97;;;14.50;99.90;;;;;;4994166;28;20174;-62
2022/05/10 04:59:43;;;;;;;5.50;5.00;;;14.50;99.90;;;;;;4994207;28;20199;-63
2022/05/10 05:02:09;;;;;;;5.73;4.73;;;14.60;99.90;;;;;;4994136;28;20171;-65
2022/05/10 05:04:34;;;;;;;4.83;4.43;;;14.60;99.90;;;;;;4993732;28;20204;-63
2022/05/10 05:07:00;;;;;;;5.43;4.93;;;14.70;99.90;;;;;;4976518;28;20200;-63
2022/05/10 05:09:25;;;;;;;5.20;4.70;;;14.80;99.90;;;;;;4993822;28;20190;-65
2022/05/10 05:11:51;;;;;;;5.40;4.60;;;14.90;99.90;;;;;;4993938;28;20666;-63
2022/05/10 05:14:17;;;;;;;4.93;4.53;;;14.90;99.90;;;;;;4993663;28;20212;-62
2022/05/10 05:16:43;;;;;;;5.83;4.60;;;15.00;99.90;;;;;;4993756;28;20179;-63
2022/05/10 05:19:08;;;;;;;6.97;4.80;;;15.00;99.90;;;;;;4993711;28;20176;-64
2022/05/10 05:21:34;;;;;;;4.70;4.30;;;15.10;99.90;;;;;;4993680;28;20172;-63
2022/05/10 05:23:59;;;;;;;5.30;4.80;;;15.20;99.90;;;;;;4993358;28;20262;-62
2022/05/10 05:26:25;;;;;;;5.30;4.50;;;15.20;99.90;;;;;;4993439;28;20179;-59
2022/05/10 05:28:50;;;;;;;4.83;4.40;;;15.40;99.90;;;;;;4993587;28;20165;-63
2022/05/10 05:31:17;;;;;;;4.83;4.37;;;15.40;99.90;;;;;;4993584;28;20197;-60
2022/05/10 05:33:43;;;;;;;4.37;4.03;;;15.50;99.90;;;;;;4992223;28;20539;-63
2022/05/10 05:36:08;;;;;;;4.80;4.27;;;15.50;99.90;;;;;;4993309;28;20188;-60
2022/05/10 05:38:34;;;;;;;6.53;5.07;;;15.60;99.90;;;;;;4993493;28;20189;-62
2022/05/10 05:41:01;;;;;;;5.70;5.20;;;15.70;99.90;;;;;;4993382;28;20193;-63
2022/05/10 05:43:27;;;;;;;6.30;5.03;;;15.60;99.90;;;;;;4992964;28;20201;-64
2022/05/10 05:45:53;;;;;;;6.03;5.40;;;15.50;99.90;;;;;;4993356;28;20248;-66
2022/05/10 05:48:19;;;;;;;5.90;5.40;;;15.40;99.90;;;;;;4993322;28;20205;-62
2022/05/10 05:50:46;;;;;;;5.93;5.10;;;15.30;99.90;;;;;;4992872;28;20212;-63
2022/05/10 05:53:11;;;;;;;5.77;5.10;;;15.40;99.90;;;;;;4993186;28;20646;-63
2022/05/10 05:55:38;;;;;;;5.50;5.00;;;15.50;99.90;;;;;;4992907;28;20185;-63
2022/05/10 05:58:03;;;;;;;6.60;5.10;;;15.60;99.90;;;;;;4993034;28;20176;-63
2022/05/10 06:00:29;;;;;;;4.80;4.40;;;15.60;99.90;;;;;;4992866;28;20546;-63
2022/05/10 06:02:55;;;;;;;4.90;4.50;;;15.70;99.90;;;;;;4993034;28;20213;-63
2022/05/10 06:05:23;;;;;;;5.27;4.77;;;15.80;99.90;;;;;;4992670;28;20184;-62
2022/05/10 06:07:48;;;;;;;5.67;5.10;;;15.90;99.90;;;;;;4993124;28;20251;-63
2022/05/10 06:10:14;;;;;;;6.07;5.47;;;16.10;99.90;;;;;;4992850;28;20647;-60
2022/05/10 06:12:41;;;;;;;6.07;5.50;;;16.20;99.90;;;;;;4992787;28;20166;-63
2022/05/10 06:15:13;;;;;;;5.80;5.30;;;16.20;99.90;;;;;;4992602;28;20531;-62
2022/05/10 06:17:41;;;;;;;6.70;5.30;;;16.20;99.90;;;;;;4992660;28;20185;-64
2022/05/10 06:20:09;;;;;;;6.53;5.83;;;16.30;99.90;;;;;;4992725;28;20197;-63
2022/05/10 06:22:35;;;;;;;5.70;5.20;;;16.40;99.90;;;;;;4992677;28;20212;-64
2022/05/10 06:25:00;;;;;;;6.90;6.20;;;16.50;99.90;;;;;;4992189;28;20181;-64
2022/05/10 06:27:26;;;;;;;6.53;5.93;;;16.60;99.90;;;;;;4992382;28;20232;-62
2022/05/10 06:29:52;;;;;;;5.93;5.43;;;16.60;99.90;;;;;;4994094;28;20189;-63
2022/05/10 06:32:26;;;;;;;5.90;5.40;;;16.60;99.90;;;;;;4988813;28;20177;-65
2022/05/10 06:34:52;;;;;;;6.17;5.67;;;16.60;99.90;;;;;;4991690;28;20181;-63
2022/05/10 06:40:06;;;;;;;6.23;5.73;;;16.70;99.90;;;;;;4992334;28;20204;-60
2022/05/10 06:42:32;;;;;;;6.60;5.90;;;16.80;99.90;;;;;;4992350;28;20173;-63
2022/05/10 06:44:57;;;;;;;7.20;6.13;;;16.80;99.90;;;;;;4991592;28;20586;-62
2022/05/10 06:47:23;;;;;;;6.10;5.50;;;16.70;99.90;;;;;;4991746;28;20170;-62
2022/05/10 06:49:48;;;;;;;5.60;5.10;;;16.60;99.90;;;;;;4991457;28;20209;-63
2022/05/10 06:52:17;;;;;;;7.23;5.90;;;16.80;99.90;;;;;;4992260;28;20166;-63
2022/05/10 06:54:44;;;;;;;5.53;5.03;;;17.00;99.90;;;;;;4990448;28;20182;-63
2022/05/10 06:57:09;;;;;;;5.20;4.80;;;17.20;99.90;;;;;;4995145;28;20264;-62
2022/05/10 06:59:35;;;;;;;6.23;5.63;;;17.30;99.90;;;;;;4996281;28;20238;-64
2022/05/10 07:02:00;;;;;;;7.47;5.43;;;17.50;99.90;;;;;;4996402;28;20204;-62
2022/05/10 07:04:26;;;;;;;6.20;5.60;;;17.50;99.90;;;;;;4995954;28;20209;-63
2022/05/10 07:06:51;;;;;;;5.73;5.23;;;17.50;99.90;;;;;;4996248;28;20178;-62
2022/05/10 07:09:18;;;;;;;6.20;5.60;;;17.50;99.90;;;;;;4996075;28;20195;-66
2022/05/10 07:11:46;;;;;;;5.97;5.37;;;17.50;99.90;;;;;;4996189;28;20168;-62
2022/05/10 07:14:12;;;;;;;6.17;5.67;;;17.40;99.90;;;;;;4995904;28;20263;-62
2022/05/10 07:16:38;;;;;;;9.80;5.73;;;17.40;99.90;;;;;;4996765;28;20190;-64
2022/05/10 07:19:03;;;;;;;6.30;5.70;;;17.30;99.90;;;;;;4996126;28;20177;-62
2022/05/10 07:21:29;;;;;;;6.43;5.77;;;17.30;99.90;;;;;;4996009;28;20183;-64
2022/05/10 07:23:55;;;;;;;6.80;6.10;;;17.40;99.90;;;;;;4995662;28;20202;-63
2022/05/10 07:26:20;;;;;;;6.67;5.70;;;17.50;99.90;;;;;;4995883;28;20248;-65
2022/05/10 07:28:46;;;;;;;6.67;5.97;;;17.50;99.90;;;;;;4995750;28;20185;-62
2022/05/10 07:31:13;;;;;;;8.03;5.50;;;17.60;99.90;;;;;;4995836;28;20186;-63
2022/05/10 07:33:38;;;;;;;6.37;5.77;;;17.70;99.90;;;;;;4995528;28;20170;-60
2022/05/10 07:38:48;;;;;;;6.87;5.83;;;17.90;99.90;;;;;;4995681;28;20207;-64
2022/05/10 07:41:13;;;;;;;6.00;5.50;;;18.00;99.90;;;;;;4995543;28;20199;-63
2022/05/10 07:43:40;;;;;;;7.53;5.33;;;18.10;99.90;;;;;;4995493;28;20209;-62
2022/05/10 07:46:06;;;;;;;7.97;5.87;;;18.30;99.90;;;;;;4995538;28;20185;-63
2022/05/10 07:48:32;;;;;;;8.33;6.40;;;18.40;99.90;;;;;;4995574;28;20181;-64
2022/05/10 07:50:59;;;;;;;6.50;5.90;;;18.50;99.90;;;;;;4995221;28;20263;-63
2022/05/10 07:53:24;;;;;;;6.70;5.73;;;18.40;99.90;;;;;;4995266;28;20551;-63
2022/05/10 07:55:50;;;;;;;7.60;6.43;;;18.50;99.90;;;;;;4995454;28;20170;-62
2022/05/10 07:58:16;;;;;;;6.10;5.60;;;18.60;99.90;;;;;;4995327;28;20181;-63
2022/05/10 08:00:42;;;;;;;6.43;5.90;;;18.50;99.90;;;;;;4995205;28;20268;-64
2022/05/10 08:03:17;;;;;;;7.03;6.30;;;18.50;99.90;;;;;;4995127;28;20197;-64
2022/05/10 08:05:43;;;;;;;6.80;6.10;;;18.60;99.90;;;;;;4994968;28;20177;-63
2022/05/10 08:08:11;;;;;;;7.07;6.40;;;18.60;99.90;;;;;;4993847;28;20177;-63
2022/05/10 08:10:38;;;;;;;6.80;6.10;;;18.70;99.90;;;;;;4995093;28;20189;-63
2022/05/10 08:13:08;;;;;;;7.27;6.57;;;18.80;99.90;;;;;;4995062;28;20276;-62
2022/05/10 08:15:33;;;;;;;7.40;6.50;;;19.00;99.90;;;;;;4994802;28;20184;-62
2022/05/10 08:17:59;;;;;;;6.70;6.03;;;19.00;99.90;;;;;;4995040;28;20178;-64
2022/05/10 08:20:24;;;;;;;6.80;6.10;;;19.00;99.90;;;;;;4994917;28;20678;-64
2022/05/10 08:22:50;;;;;;;7.70;6.93;;;19.10;99.90;;;;;;4994763;28;20276;-63
2022/05/10 08:25:15;;;;;;;6.63;6.03;;;19.20;99.90;;;;;;4994494;28;20178;-63
2022/05/10 08:27:41;;;;;;;6.90;6.30;;;19.40;99.90;;;;;;4994823;28;20662;-63
2022/05/10 08:30:07;;;;;;;6.47;5.87;;;19.60;99.90;;;;;;4994702;28;20272;-65
2022/05/10 08:32:33;;;;;;;6.90;6.30;;;19.70;99.90;;;;;;4994725;28;20173;-65
2022/05/10 08:34:58;;;;;;;6.93;6.33;;;19.80;99.90;;;;;;4994306;28;20604;-63
2022/05/10 08:37:24;;;;;;;6.53;5.93;;;19.90;99.90;;;;;;4994505;28;20260;-63
2022/05/10 08:39:49;;;;;;;6.83;6.23;;;20.00;99.90;;;;;;4994492;28;20540;-65
2022/05/10 08:42:15;;;;;;;6.17;5.57;;;19.90;99.90;;;;;;4994587;28;20542;-64
2022/05/10 08:44:41;;;;;;;6.30;5.43;;;19.90;99.90;;;;;;4994148;28;20258;-63
2022/05/10 08:47:08;;;;;;;6.77;6.10;;;20.00;99.90;;;;;;4994346;28;20197;-64
2022/05/10 08:49:39;;;;;;;6.63;5.90;;;20.10;99.90;;;;;;4994242;28;20208;-63
2022/05/10 08:52:08;;;;;;;6.40;5.80;;;20.20;99.90;;;;;;4994311;28;20178;-64
2022/05/10 08:54:37;;;;;;;6.10;5.57;;;20.30;99.90;;;;;;4994046;28;20173;-64
2022/05/10 08:57:11;;;;;;;6.00;5.40;;;20.40;99.90;;;;;;4994193;28;20169;-64
2022/05/10 09:00:10;;;;;;;6.30;5.70;;;20.70;99.90;;;;;;4994206;28;20193;-65
2022/05/10 09:02:41;;;;;;;6.80;6.10;;;20.70;99.90;;;;;;4994164;28;20216;-61
2022/05/10 09:05:21;;;;;;;6.80;6.20;;;20.60;99.90;;;;;;4993987;28;20216;-62
2022/05/10 09:08:25;;;;;;;6.97;5.90;;;20.60;99.90;;;;;;4994092;28;20169;-64
2022/05/10 09:10:53;;;;;;;7.90;5.90;;;20.50;99.90;;;;;;4993848;28;20248;-64
2022/05/10 09:13:21;;;;;;;6.17;5.57;;;20.50;99.90;;;;;;4993764;28;20254;-62
2022/05/10 09:15:59;;;;;;;6.40;5.80;;;20.40;99.90;;;;;;4993810;28;20181;-61
2022/05/10 09:18:28;;;;;;;6.03;5.50;;;20.60;99.90;;;;;;4993599;28;20581;-64
2022/05/10 09:21:28;;;;;;;5.80;5.30;;;20.80;99.90;;;;;;4993766;28;20189;-60
2022/05/10 09:24:28;;;;;;;8.02;5.47;;;21.00;99.90;;;;;;4993560;28;20256;-62
2022/05/10 09:26:57;;;;;;;7.55;5.43;;;21.30;99.90;;;;;;4993885;28;20213;-59
2022/05/10 09:29:39;;;;;;;4.78;4.38;;;21.40;99.90;;;;;;4993539;28;20191;-63
2022/05/10 09:35:27;;;;;;;5.47;4.97;;;21.80;99.90;;;;;;4993475;28;20669;-62
2022/05/10 09:38:01;;;;;;;5.53;4.70;;;21.70;99.90;;;;;;4993426;28;20581;-61
2022/05/10 09:40:43;;;;;;;7.05;5.32;;;21.90;99.90;;;;;;4993389;28;20636;-63
2022/05/10 09:43:15;;;;;;;5.32;4.82;;;22.00;99.90;;;;;;4993326;28;20228;-63
2022/05/10 09:45:41;;;;;;;4.68;4.28;;;22.80;99.90;;;;;;4995932;28;20208;-62
2022/05/10 09:48:17;;;;;;;5.53;5.00;;;22.10;99.90;;;;;;4986038;28;20170;-62
2022/05/10 09:50:49;;;;;;;5.75;4.60;;;22.20;99.90;;;;;;4996857;28;20219;-63
2022/05/10 09:53:29;;;;;;;4.68;3.90;;;22.30;99.90;;;;;;5006891;28;20183;-63
2022/05/10 09:56:24;;;;;;;4.13;3.83;;;22.50;99.90;;;;;;5012777;28;20568;-65
2022/05/10 09:59:22;;;;;;;6.15;4.20;;;22.60;99.90;;;;;;4995258;28;20566;-63
2022/05/10 10:01:56;;;;;;;6.13;5.07;;;22.50;99.90;;;;;;4979466;28;20189;-63
2022/05/10 10:04:27;;;;;;;4.75;4.28;;;22.30;99.90;;;;;;5009926;28;20204;-63
2022/05/10 10:07:03;;;;;;;4.47;3.30;;;22.20;99.90;;;;;;5012218;28;20538;-63
2022/05/10 10:09:38;;;;;;;3.85;3.53;;;22.30;99.90;;;;;;5001366;28;20188;-63
2022/05/10 10:12:23;;;;;;;3.92;3.30;;;22.60;99.90;;;;;;4985469;28;20658;-63
2022/05/10 10:14:49;;;;;;;4.65;3.25;;;22.60;99.90;;;;;;4982168;28;20204;-62
2022/05/10 10:17:31;;;;;;;4.80;4.32;;;22.70;99.90;;;;;;4980572;28;20174;-64
2022/05/10 10:20:14;;;;;;;6.03;5.50;;;22.90;99.90;;;;;;4980691;28;20193;-65
2022/05/10 10:22:45;;;;;;;5.82;5.30;;;22.90;99.90;;;;;;4978420;28;20170;-62
2022/05/10 10:25:18;;;;;;;6.43;5.80;;;23.10;99.90;;;;;;4980696;28;20208;-63
2022/05/10 10:27:51;;;;;;;8.13;5.35;;;23.10;99.90;;;;;;4986690;28;20603;-62
2022/05/10 10:30:40;;;;;;;5.28;4.57;;;23.00;99.90;;;;;;4982723;28;20182;-62
2022/05/10 10:33:25;;;;;;;6.45;5.70;;;22.80;99.90;;;;;;4981826;28;20690;-63
2022/05/10 10:35:56;;;;;;;6.22;5.60;;;22.70;99.90;;;;;;4968771;28;20251;-65
2022/05/10 10:38:59;;;;;;;8.98;6.53;;;22.90;99.90;;;;;;4983238;28;20232;-62
2022/05/10 10:41:49;;;;;;;6.70;6.10;;;23.00;99.90;;;;;;4980752;28;20188;-62
2022/05/10 10:44:20;;;;;;;6.20;4.68;;;23.00;99.90;;;;;;4986373;28;20235;-63
2022/05/10 10:47:22;;;;;;;7.55;4.55;;;23.20;99.90;;;;;;4981544;28;20189;-64
2022/05/10 10:49:52;;;;;;;4.82;3.88;;;23.40;99.90;;;;;;4981695;28;20209;-64
2022/05/10 10:54:47;;;;;;;4.70;4.30;;;23.40;99.90;;;;;;4984047;28;20240;-62
2022/05/10 10:57:16;;;;;;;5.43;4.05;;;23.50;99.90;;;;;;4991392;28;20185;-61
2022/05/10 10:59:48;;;;;;;5.13;4.20;;;23.40;99.90;;;;;;4991389;28;20189;-62
2022/05/10 11:02:56;;;;;;;5.05;3.65;;;23.50;99.90;;;;;;4987306;28;20174;-62
2022/05/10 11:05:52;;;;;;;4.47;4.07;;;23.60;99.90;;;;;;4983109;28;20189;-62
2022/05/10 11:08:18;;;;;;;3.95;3.63;;;23.80;99.90;;;;;;4982242;28;20174;-62
2022/05/10 11:10:55;;;;;;;5.15;4.63;;;24.00;99.90;;;;;;4981099;28;20186;-57
2022/05/10 11:13:29;;;;;;;7.13;4.32;;;24.10;99.90;;;;;;4982802;28;20574;-61
2022/05/10 11:16:16;;;;;;;5.45;4.53;;;23.80;99.90;;;;;;4981121;28;20200;-62
2022/05/10 11:18:51;;;;;;;3.65;3.35;;;24.00;99.90;;;;;;4980415;28;20188;-61
2022/05/10 11:21:35;;;;;;;4.43;3.80;;;24.30;99.90;;;;;;4985354;28;20546;-61
2022/05/10 11:24:10;;;;;;;5.22;3.60;;;24.60;99.80;;;;;;4979867;28;20210;-62
2022/05/10 11:27:05;;;;;;;4.80;4.07;;;24.40;99.20;;;;;;4983284;28;20259;-61
2022/05/10 11:29:37;;;;;;;4.90;4.50;;;24.40;99.90;;;;;;4944880;28;20695;-62
2022/05/10 11:32:15;;;;;;;4.28;3.88;;;24.30;99.60;;;;;;4955073;28;20183;-62
2022/05/10 11:35:17;;;;;;;5.00;3.67;;;24.50;99.40;;;;;;4939205;29;20296;-62
2022/05/10 11:38:11;;;;;;;4.07;3.50;;;24.60;99.30;;;;;;4941530;29;20189;-62
2022/05/10 11:40:55;;;;;;;4.30;3.90;;;24.60;99.00;;;;;;4926214;29;20186;-62
2022/05/10 11:43:54;;;;;;;4.38;3.97;;;24.40;99.10;;;;;;4942131;29;20692;-62
2022/05/10 11:46:47;;;;;;;4.85;3.42;;;24.20;98.30;;;;;;4943666;29;20270;-63
2022/05/10 11:49:18;;;;;;;5.32;3.50;;;24.10;99.90;;;;;;4942742;29;20177;-62
2022/05/10 11:52:01;;;;;;;4.18;3.78;;;24.00;98.80;;;;;;4942755;29;20187;-62
2022/05/10 11:54:42;;;;;;;3.42;3.15;;;24.10;98.40;;;;;;4944119;29;20242;-62
2022/05/10 11:57:14;;;;;;;4.80;3.30;;;24.30;97.90;;;;;;4949011;29;20197;-62
2022/05/10 11:59:42;;;;;;;3.75;2.60;;;24.30;98.80;;;;;;4954400;29;20186;-62
2022/05/10 12:02:29;;;;;;;4.07;2.97;;;24.30;99.90;;;;;;4953580;29;20182;-62
2022/05/10 12:05:10;;;;;;;2.90;2.63;;;24.50;98.30;;;;;;4957091;28;20233;-62
2022/05/10 12:08:11;;;;;;;2.80;2.45;;;24.70;97.10;;;;;;4995008;28;20251;-62
2022/05/10 12:10:42;;;;;;;2.75;2.55;;;24.60;97.60;;;;;;4966930;28;20191;-59
2022/05/10 12:13:09;;;;;;;4.15;2.45;;;24.30;97.20;;;;;;4995096;28;20189;-63
2022/05/10 12:21:53;;;;;;;2.90;2.70;;;24.90;98.10;;;;;;4994995;28;20611;-62
2022/05/10 12:24:25;;;;;;;2.75;2.55;;;24.90;95.30;;;;;;4994546;28;20224;-62
2022/05/10 12:26:52;;;;;;;3.65;2.28;;;24.70;93.60;;;;;;4994773;28;20590;-61
2022/05/10 12:29:39;;;;;;;2.97;2.30;;;24.50;94.20;;;;;;4994795;28;20174;-63
2022/05/10 12:32:09;;;;;;;2.65;2.45;;;24.30;95.90;;;;;;4994749;28;20520;-62
2022/05/10 12:34:39;;;;;;;2.85;2.40;;;24.20;95.70;;;;;;4994208;28;20574;-62
2022/05/10 12:37:27;;;;;;;3.03;2.28;;;24.40;94.10;;;;;;4994793;28;20196;-62
2022/05/10 12:40:10;;;;;;;2.88;2.40;;;24.50;95.20;;;;;;4994586;28;20216;-62
2022/05/10 12:43:12;;;;;;;3.28;2.13;;;24.40;95.30;;;;;;4994526;28;20190;-63
2022/05/10 12:45:44;;;;;;;2.55;2.35;;;24.30;94.40;;;;;;4994144;28;20260;-62
2022/05/10 12:48:48;;;;;;;3.13;2.20;;;24.40;94.30;;;;;;4994484;28;20174;-62
2022/05/10 12:51:31;;;;;;;3.47;2.33;;;24.60;93.30;;;;;;4994273;28;20838;-62
2022/05/10 12:54:00;;;;;;;5.70;2.60;;;24.70;93.20;;;;;;4993273;28;20261;-62
2022/05/10 12:56:40;;;;;;;2.67;2.47;;;25.00;94.60;;;;;;4994266;28;20170;-63
2022/05/10 12:59:28;;;;;;;2.65;2.40;;;24.90;91.80;;;;;;4994254;28;20240;-62
2022/05/10 13:01:57;;;;;;;2.78;2.58;;;24.80;91.80;;;;;;4994250;28;20260;-62
2022/05/10 13:04:29;;;;;;;3.10;2.30;;;25.20;93.50;;;;;;4993611;28;20209;-63
2022/05/10 13:07:08;;;;;;;2.20;2.10;;;25.60;93.50;;;;;;4994159;28;20593;-62
2022/05/10 13:09:55;;;;;;;2.45;2.25;;;25.70;94.60;;;;;;4993831;28;20196;-61
2022/05/10 13:12:32;;;;;;;2.40;2.30;;;25.70;91.10;;;;;;4993663;28;20535;-62
2022/05/10 13:15:08;;;;;;;2.53;2.33;;;25.70;90.90;;;;;;4993724;28;20673;-62
2022/05/10 13:17:35;;;;;;;2.35;2.15;;;25.70;90.40;;;;;;4993800;28;20252;-63
2022/05/10 13:20:08;;;;;;;3.30;2.65;;;25.80;91.90;;;;;;4993880;28;20169;-63
2022/05/10 13:22:34;;;;;;;3.30;2.50;;;25.70;91.90;;;;;;4993737;28;20200;-62
2022/05/10 13:25:04;;;;;;;3.55;2.35;;;25.80;92.90;;;;;;4993350;28;20615;-62
2022/05/10 13:27:37;;;;;;;2.30;2.10;;;25.80;91.00;;;;;;4993603;28;20554;-62
2022/05/10 13:30:18;;;;;;;3.20;2.42;;;25.90;93.10;;;;;;4993713;28;20174;-62
2022/05/10 13:32:47;;;;;;;2.75;2.42;;;26.20;94.00;;;;;;4993338;28;20264;-62
2022/05/10 13:35:31;;;;;;;3.67;2.70;;;26.40;92.30;;;;;;4993228;28;20169;-62
2022/05/10 13:38:11;;;;;;;3.63;2.63;;;26.30;90.40;;;;;;4993502;28;20173;-62
2022/05/10 13:40:44;;;;;;;2.58;2.38;;;26.30;90.00;;;;;;4993427;28;20184;-63